Time;durP1;ratioP1;P1;durP2;ratioP2;P2;SDS_P1;SDS_P2;PMS_P1;PMS_P2;Temp;Humidity;BMP_temperature;BMP_pressure;BME280_temperature;BME280_humidity;BME280_pressure;Samples;Min_cycle;Max_cycle;Signal;HPM_P1;HPM_P2
2024/01/03 00:01:13;;;;;;;25.10;4.28;;;;;;;;;;5065923;28;20163;-66
2024/01/03 00:03:39;;;;;;;29.30;5.80;;;;;;;;;;5069796;28;20487;-65
2024/01/03 00:06:05;;;;;;;34.95;7.05;;;;;;;;;;5066456;28;20127;-68
2024/01/03 00:08:38;;;;;;;40.13;6.93;;;;;;;;;;5069750;28;20036;-65
2024/01/03 00:11:05;;;;;;;31.48;6.25;;;;;;;;;;5052336;28;20048;-65
2024/01/03 00:13:34;;;;;;;23.48;5.50;;;;;;;;;;5062708;28;20044;-65
2024/01/03 00:16:00;;;;;;;26.60;5.72;;;;;;;;;;5066419;28;20044;-64
2024/01/03 00:18:38;;;;;;;18.85;6.40;;;;;;;;;;5856103;22;20023;-63
2024/01/03 00:21:06;;;;;;;27.73;6.70;;;;;;;;;;5013877;28;20050;-63
2024/01/03 00:23:50;;;;;;;27.13;5.32;;;;;;;;;;5001113;28;20088;-63
2024/01/03 00:26:17;;;;;;;31.85;8.10;;;;;;;;;;4999833;28;20046;-63
2024/01/03 00:28:43;;;;;;;25.55;5.75;;;;;;;;;;4981840;28;20034;-64
2024/01/03 00:31:44;;;;;;;33.33;5.93;;;9.60;99.90;;;;;;4985613;28;20044;-64
2024/01/03 00:34:16;;;;;;;24.92;6.53;;;;;;;;;;4987825;28;20572;-64
2024/01/03 00:36:42;;;;;;;23.02;5.32;;;;;;;;;;4976469;28;20100;-63
2024/01/03 00:39:08;;;;;;;24.45;4.93;;;;;;;;;;4983749;28;20050;-63
2024/01/03 00:41:34;;;;;;;23.60;4.22;;;9.30;99.90;;;;;;4984913;28;20050;-63
2024/01/03 00:44:00;;;;;;;22.75;4.70;;;;;;;;;;4981839;28;20482;-63
2024/01/03 00:46:26;;;;;;;29.55;6.15;;;;;;;;;;4983494;28;20046;-64
2024/01/03 00:48:52;;;;;;;26.20;5.68;;;;;;;;;;4984117;28;20038;-64
2024/01/03 00:51:18;;;;;;;23.65;5.72;;;;;;;;;;4988846;28;20034;-64
2024/01/03 00:53:44;;;;;;;29.40;7.15;;;;;;;;;;4981858;28;20563;-64
2024/01/03 00:56:10;;;;;;;35.55;5.53;;;;;;;;;;4983493;28;20097;-64
2024/01/03 00:58:36;;;;;;;34.70;7.10;;;;;;;;;;4980028;28;20088;-64
2024/01/03 01:01:02;;;;;;;59.72;8.20;;;;;;;;;;4984785;28;20125;-62
2024/01/03 01:03:28;;;;;;;18.08;5.95;;;;;;;;;;4985298;28;20493;-63
2024/01/03 01:05:54;;;;;;;32.65;5.65;;;;;;;;;;4979978;28;20051;-64
2024/01/03 01:08:20;;;;;;;30.00;6.18;;;;;;;;;;4987592;28;20489;-64
2024/01/03 01:10:46;;;;;;;25.02;6.30;;;;;;;;;;4979138;28;20038;-63
2024/01/03 01:13:12;;;;;;;33.70;6.78;;;;;;;;;;4981384;28;20042;-64
2024/01/03 01:15:38;;;;;;;28.60;5.30;;;;;;;;;;4982034;28;20053;-63
2024/01/03 01:18:05;;;;;;;33.53;5.63;;;;;;;;;;4978696;28;20038;-63
2024/01/03 01:20:31;;;;;;;22.95;5.35;;;;;;;;;;4977371;28;20030;-63
2024/01/03 01:22:56;;;;;;;25.30;5.93;;;8.80;99.90;;;;;;4981156;28;20041;-63
2024/01/03 01:25:22;;;;;;;27.58;6.60;;;;;;;;;;4982671;28;20113;-63
2024/01/03 01:27:48;;;;;;;26.67;6.63;;;9.10;99.90;;;;;;4979990;28;20129;-63
2024/01/03 01:30:14;;;;;;;26.35;6.13;;;;;;;;;;4980529;28;20453;-62
2024/01/03 01:32:40;;;;;;;30.48;6.43;;;;;;;;;;4981985;28;20034;-62
2024/01/03 01:35:06;;;;;;;28.70;6.05;;;;;;;;;;4977179;28;20047;-64
2024/01/03 01:37:32;;;;;;;25.92;5.22;;;;;;;;;;4987167;28;20086;-63
2024/01/03 01:39:58;;;;;;;26.95;6.38;;;;;;;;;;4981582;28;20042;-63
2024/01/03 01:42:28;;;;;;;16.77;4.18;;;;;;;;;;4981265;28;20038;-62
2024/01/03 01:44:54;;;;;;;19.80;4.38;;;;;;;;;;4985703;28;20662;-63
2024/01/03 01:47:20;;;;;;;23.58;4.50;;;;;;;;;;4984126;28;20132;-62
2024/01/03 01:49:46;;;;;;;22.30;4.28;;;;;;;;;;4986912;28;20031;-63
2024/01/03 01:52:14;;;;;;;16.33;4.32;;;;;;;;;;4984205;28;20058;-62
2024/01/03 01:54:40;;;;;;;25.08;5.07;;;;;;;;;;4984990;28;20145;-62
2024/01/03 01:57:06;;;;;;;17.42;5.22;;;;;;;;;;4980357;28;20034;-62
2024/01/03 01:59:32;;;;;;;17.63;5.78;;;;;;;;;;4985332;28;20048;-62
2024/01/03 02:01:58;;;;;;;27.50;5.38;;;;;;;;;;4979162;28;20125;-61
2024/01/03 02:04:25;;;;;;;16.90;4.10;;;;;;;;;;4976638;28;20034;-62
2024/01/03 02:06:51;;;;;;;14.80;4.40;;;8.90;99.90;;;;;;4983573;28;20050;-62
2024/01/03 02:09:17;;;;;;;16.08;4.18;;;;;;;;;;4986711;28;20069;-62
2024/01/03 02:11:46;;;;;;;22.65;4.07;;;;;;;;;;4984277;28;20041;-61
2024/01/03 02:14:12;;;;;;;15.48;4.10;;;;;;;;;;4978321;28;20088;-61
2024/01/03 02:16:38;;;;;;;17.45;3.70;;;;;;;;;;4984973;28;20038;-61
2024/01/03 02:19:04;;;;;;;16.73;3.80;;;9.10;99.90;;;;;;4981344;28;20618;-62
2024/01/03 02:21:30;;;;;;;19.83;4.25;;;;;;;;;;4981220;28;20186;-62
2024/01/03 02:23:56;;;;;;;18.10;3.75;;;;;;;;;;4982408;28;20057;-61
2024/01/03 02:26:22;;;;;;;14.52;3.33;;;;;;;;;;4982169;28;20495;-61
2024/01/03 02:28:48;;;;;;;15.38;4.47;;;;;;;;;;4979900;28;20042;-61
2024/01/03 02:31:14;;;;;;;22.25;3.78;;;;;;;;;;4978765;28;20035;-61
2024/01/03 02:33:40;;;;;;;21.45;3.60;;;;;;;;;;4984142;28;20053;-61
2024/01/03 02:36:07;;;;;;;12.30;3.25;;;;;;;;;;4979128;28;20118;-61
2024/01/03 02:38:33;;;;;;;15.23;3.60;;;;;;;;;;4984636;28;20072;-61
2024/01/03 02:40:59;;;;;;;17.73;3.75;;;;;;;;;;4984302;28;20653;-61
2024/01/03 02:43:25;;;;;;;20.85;4.03;;;;;;;;;;4985605;28;20121;-61
2024/01/03 02:45:51;;;;;;;15.38;3.72;;;;;;;;;;4987140;28;20050;-61
2024/01/03 02:48:17;;;;;;;15.00;3.70;;;;;;;;;;4983907;28;20079;-61
2024/01/03 02:50:47;;;;;;;17.08;4.82;;;;;;;;;;4979580;28;20038;-61
2024/01/03 02:53:13;;;;;;;22.77;3.67;;;;;;;;;;4987096;28;20165;-62
2024/01/03 02:55:40;;;;;;;17.58;3.78;;;;;;;;;;4988922;28;20123;-61
2024/01/03 02:58:05;;;;;;;18.30;3.88;;;;;;;;;;4984118;28;20054;-61
2024/01/03 03:00:31;;;;;;;12.85;3.13;;;;;;;;;;4980751;28;20490;-61
2024/01/03 03:02:57;;;;;;;17.65;3.63;;;;;;;;;;4983716;28;20042;-61
2024/01/03 03:05:23;;;;;;;19.65;3.63;;;;;;;;;;4981298;28;20039;-61
2024/01/03 03:07:49;;;;;;;10.55;3.20;;;;;;;;;;4976802;28;20035;-61
2024/01/03 03:10:15;;;;;;;15.90;4.10;;;;;;;;;;4979078;28;20031;-61
2024/01/03 03:12:41;;;;;;;15.38;3.20;;;;;;;;;;4978188;28;20093;-61
2024/01/03 03:15:08;;;;;;;22.00;4.78;;;;;;;;;;4974917;28;20046;-60
2024/01/03 03:17:34;;;;;;;12.38;2.78;;;;;;;;;;4974572;28;20042;-61
2024/01/03 03:20:00;;;;;;;16.27;4.32;;;;;;;;;;4984274;28;20046;-61
2024/01/03 03:22:26;;;;;;;14.85;3.40;;;;;;;;;;4984398;28;20057;-60
2024/01/03 03:24:52;;;;;;;16.52;3.28;;;;;;;;;;4982814;28;20069;-61
2024/01/03 03:27:18;;;;;;;19.17;3.72;;;;;;;;;;4978572;28;20049;-61
2024/01/03 03:29:44;;;;;;;19.23;4.50;;;;;;;;;;4983477;28;20729;-61
2024/01/03 03:32:10;;;;;;;10.77;2.65;;;;;;;;;;4983692;28;20040;-60
2024/01/03 03:34:37;;;;;;;12.70;2.85;;;;;;;;;;4983413;28;20409;-61
2024/01/03 03:37:03;;;;;;;16.10;3.78;;;;;;;;;;4980450;28;20061;-61
2024/01/03 03:39:28;;;;;;;10.38;2.80;;;9.40;99.90;;;;;;4978505;28;20042;-60
2024/01/03 03:41:54;;;;;;;15.07;3.10;;;;;;;;;;4980714;28;20142;-60
2024/01/03 03:44:20;;;;;;;16.20;4.32;;;9.40;99.90;;;;;;4979847;28;20027;-60
2024/01/03 03:46:46;;;;;;;16.73;4.20;;;;;;;;;;4986668;28;20462;-61
2024/01/03 03:49:12;;;;;;;15.25;3.97;;;;;;;;;;4981473;28;20079;-61
2024/01/03 03:51:38;;;;;;;17.42;2.67;;;;;;;;;;4982248;28;20054;-60
2024/01/03 03:54:04;;;;;;;14.25;3.08;;;;;;;;;;4980512;28;20053;-61
2024/01/03 03:56:30;;;;;;;16.55;2.80;;;;;;;;;;4982964;28;20494;-60
2024/01/03 03:58:56;;;;;;;13.98;4.38;;;9.40;99.90;;;;;;4981886;28;20121;-61
2024/01/03 04:01:21;;;;;;;11.27;2.85;;;9.20;99.90;;;;;;4987169;28;20181;-60
2024/01/03 04:03:48;;;;;;;19.80;3.92;;;;;;;;;;4983918;28;20054;-60
2024/01/03 04:06:15;;;;;;;16.60;2.75;;;;;;;;;;4981714;28;20342;-61
2024/01/03 04:08:45;;;;;;;14.02;2.90;;;;;;;;;;4978590;28;20046;-60
2024/01/03 04:11:11;;;;;;;17.15;4.75;;;8.60;99.90;;;;;;4986296;28;20066;-60
2024/01/03 04:13:38;;;;;;;20.60;3.50;;;9.40;99.90;;;;;;4979524;28;20039;-59
2024/01/03 04:16:10;;;;;;;17.25;3.38;;;9.40;99.90;;;;;;4987108;28;20049;-60
2024/01/03 04:18:36;;;;;;;17.13;4.57;;;;;;;;;;4988655;28;20130;-59
2024/01/03 04:21:05;;;;;;;12.77;3.42;;;;;;;;;;4986711;28;20042;-60
2024/01/03 04:23:31;;;;;;;10.23;3.10;;;9.60;99.90;;;;;;4986697;28;20046;-61
2024/01/03 04:25:57;;;;;;;15.77;3.40;;;9.50;99.90;;;;;;4985333;28;20517;-60
2024/01/03 04:28:23;;;;;;;11.25;3.10;;;;;;;;;;4983335;28;20058;-60
2024/01/03 04:30:49;;;;;;;10.63;2.20;;;;;;;;;;4988618;28;20537;-60
2024/01/03 04:33:15;;;;;;;14.35;2.67;;;;;;;;;;4991037;28;20481;-59
2024/01/03 04:35:41;;;;;;;14.45;4.80;;;9.40;99.90;;;;;;4988183;28;20035;-60
2024/01/03 04:38:07;;;;;;;11.15;3.47;;;;;;;;;;4984797;28;21861;-60
2024/01/03 04:40:33;;;;;;;20.77;4.45;;;;;;;;;;4984388;28;20038;-60
2024/01/03 04:42:59;;;;;;;16.70;3.95;;;9.30;99.90;;;;;;4987848;28;20112;-60
2024/01/03 04:45:25;;;;;;;13.68;3.20;;;;;;;;;;4985243;28;20385;-60
2024/01/03 04:47:51;;;;;;;18.67;4.10;;;9.40;99.90;;;;;;4982521;28;20047;-60
2024/01/03 04:50:19;;;;;;;21.90;4.82;;;9.50;99.90;;;;;;4985320;28;20408;-60
2024/01/03 04:52:46;;;;;;;12.98;3.30;;;;;;;;;;4981087;28;20027;-60
2024/01/03 04:55:12;;;;;;;18.40;4.32;;;;;;;;;;4982949;28;20042;-61
2024/01/03 04:57:38;;;;;;;13.38;3.20;;;;;;;;;;4986127;28;20142;-59
2024/01/03 05:00:05;;;;;;;14.77;3.60;;;;;;;;;;4982449;28;20104;-60
2024/01/03 05:02:31;;;;;;;10.05;2.80;;;;;;;;;;4986465;28;20030;-58
2024/01/03 05:04:57;;;;;;;13.90;2.80;;;;;;;;;;4983341;28;20524;-60
2024/01/03 05:07:23;;;;;;;17.67;3.83;;;;;;;;;;4983142;28;20038;-60
2024/01/03 05:09:49;;;;;;;13.35;3.50;;;9.10;99.90;;;;;;4986898;28;20417;-60
2024/01/03 05:12:14;;;;;;;18.23;4.38;;;9.40;99.90;;;;;;4994082;28;20042;-60
2024/01/03 05:14:40;;;;;;;16.83;3.85;;;;;;;;;;4987845;28;20126;-60
2024/01/03 05:17:06;;;;;;;18.10;3.17;;;;;;;;;;4987404;28;20046;-59
2024/01/03 05:19:32;;;;;;;16.75;4.43;;;;;;;;;;4984785;28;20528;-60
2024/01/03 05:21:58;;;;;;;13.70;3.55;;;8.80;99.90;;;;;;4989555;28;20031;-60
2024/01/03 05:24:24;;;;;;;16.35;3.70;;;;;;;;;;4984761;28;20042;-60
2024/01/03 05:26:50;;;;;;;15.57;3.63;;;;;;;;;;4982358;28;20143;-60
2024/01/03 05:29:16;;;;;;;15.35;4.25;;;;;;;;;;4987494;28;20041;-60
2024/01/03 05:31:42;;;;;;;17.25;4.20;;;;;;;;;;4989339;28;20397;-60
2024/01/03 05:34:10;;;;;;;23.83;4.85;;;9.40;99.90;;;;;;4982044;28;20038;-60
2024/01/03 05:36:36;;;;;;;29.05;5.65;;;;;;;;;;4984928;28;20057;-60
2024/01/03 05:39:02;;;;;;;31.20;6.20;;;;;;;;;;4986164;28;20042;-60
2024/01/03 05:41:28;;;;;;;24.55;6.22;;;;;;;;;;4983527;28;20045;-61
2024/01/03 05:43:54;;;;;;;26.35;5.82;;;;;;;;;;4986931;28;20042;-60
2024/01/03 05:46:20;;;;;;;30.00;5.90;;;;;;;;;;4974428;28;20046;-61
2024/01/03 05:48:46;;;;;;;28.30;6.53;;;;;;;;;;4981789;28;20451;-59
2024/01/03 05:51:12;;;;;;;27.83;5.93;;;;;;;;;;4980047;28;20153;-61
2024/01/03 05:53:39;;;;;;;20.35;6.05;;;;;;;;;;4984407;28;20091;-61
2024/01/03 05:56:05;;;;;;;20.10;5.18;;;;;;;;;;4982833;28;20488;-60
2024/01/03 05:58:31;;;;;;;29.52;6.90;;;;;;;;;;4976563;28;20124;-61
2024/01/03 06:00:57;;;;;;;33.80;5.70;;;;;;;;;;4979788;28;20050;-61
2024/01/03 06:03:23;;;;;;;26.10;6.05;;;;;;;;;;4981494;28;20043;-61
2024/01/03 06:05:49;;;;;;;22.73;6.45;;;;;;;;;;4987120;28;20043;-60
2024/01/03 06:08:15;;;;;;;25.83;4.65;;;9.50;99.90;;;;;;4988114;28;20031;-62
2024/01/03 06:10:41;;;;;;;27.30;5.10;;;;;;;;;;4987367;28;20046;-62
2024/01/03 06:13:07;;;;;;;30.30;5.65;;;;;;;;;;4986529;28;20061;-62
2024/01/03 06:15:33;;;;;;;25.77;5.95;;;;;;;;;;4985308;28;20046;-62
2024/01/03 06:17:59;;;;;;;26.30;6.25;;;9.40;99.90;;;;;;4987332;28;20073;-62
2024/01/03 06:20:25;;;;;;;22.58;6.93;;;;;;;;;;4987421;28;20145;-62
2024/01/03 06:22:51;;;;;;;19.52;5.05;;;;;;;;;;4983704;28;20568;-62
2024/01/03 06:25:17;;;;;;;29.98;6.55;;;;;;;;;;4982572;28;20031;-62
2024/01/03 06:27:44;;;;;;;26.10;5.45;;;;;;;;;;4987886;28;20126;-62
2024/01/03 06:30:10;;;;;;;22.77;5.43;;;;;;;;;;4982111;28;20034;-63
2024/01/03 06:32:36;;;;;;;26.05;5.38;;;;;;;;;;4980478;28;20661;-63
2024/01/03 06:35:02;;;;;;;28.63;6.20;;;;;;;;;;4984560;28;20128;-63
2024/01/03 06:37:28;;;;;;;22.65;5.45;;;;;;;;;;4988047;28;20045;-63
2024/01/03 06:39:54;;;;;;;28.08;7.32;;;;;;;;;;4983788;28;20043;-63
2024/01/03 06:42:20;;;;;;;20.67;5.50;;;;;;;;;;4986646;28;20494;-63
2024/01/03 06:44:46;;;;;;;23.65;5.43;;;9.30;99.90;;;;;;4982131;28;20042;-63
2024/01/03 06:47:12;;;;;;;27.52;6.90;;;;;;;;;;4987746;28;20042;-63
2024/01/03 06:49:38;;;;;;;32.67;6.43;;;;;;;;;;4984886;28;20039;-63
2024/01/03 06:52:04;;;;;;;21.83;5.07;;;;;;;;;;4983363;28;20084;-63
2024/01/03 06:54:30;;;;;;;34.80;7.32;;;;;;;;;;4985385;28;20422;-63
2024/01/03 06:56:56;;;;;;;26.23;6.55;;;;;;;;;;4989506;28;20042;-63
2024/01/03 06:59:22;;;;;;;32.67;6.88;;;;;;;;;;4985799;28;20049;-63
2024/01/03 07:01:47;;;;;;;35.22;6.80;;;9.40;99.90;;;;;;4987532;28;20039;-63
2024/01/03 07:04:13;;;;;;;26.98;6.82;;;9.30;99.90;;;;;;4989038;28;20087;-64
2024/01/03 07:06:39;;;;;;;39.97;6.55;;;;;;;;;;4989083;28;20030;-63
2024/01/03 07:09:05;;;;;;;30.35;7.47;;;9.50;99.90;;;;;;4985863;28;20124;-64
2024/01/03 07:11:31;;;;;;;22.10;6.28;;;;;;;;;;4987494;28;20642;-64
2024/01/03 07:13:59;;;;;;;33.85;8.52;;;;;;;;;;4989566;28;20070;-64
2024/01/03 07:16:25;;;;;;;26.80;5.90;;;;;;;;;;4988288;28;20049;-64
2024/01/03 07:18:51;;;;;;;32.30;5.95;;;9.40;99.90;;;;;;4987156;28;20455;-64
2024/01/03 07:21:17;;;;;;;29.52;6.30;;;;;;;;;;4986185;28;20042;-64
2024/01/03 07:23:43;;;;;;;55.15;8.63;;;;;;;;;;4989232;28;20635;-64
2024/01/03 07:26:08;;;;;;;29.15;6.18;;;9.30;99.90;;;;;;4988168;28;20054;-63
2024/01/03 07:28:34;;;;;;;21.95;5.10;;;;;;;;;;4985001;28;20038;-63
2024/01/03 07:31:00;;;;;;;25.20;5.93;;;;;;;;;;4987599;28;20101;-64
2024/01/03 07:33:27;;;;;;;21.65;5.25;;;;;;;;;;4987190;28;20050;-63
2024/01/03 07:35:54;;;;;;;24.13;5.95;;;;;;;;;;4990762;28;20050;-64
2024/01/03 07:38:20;;;;;;;22.45;5.10;;;;;;;;;;4987297;28;20046;-63
2024/01/03 07:40:46;;;;;;;23.05;5.10;;;;;;;;;;4989293;28;20041;-64
2024/01/03 07:43:12;;;;;;;27.98;6.55;;;;;;;;;;4989281;28;20117;-63
2024/01/03 07:45:38;;;;;;;20.02;5.00;;;;;;;;;;4988310;28;20716;-64
2024/01/03 07:48:04;;;;;;;22.75;5.43;;;;;;;;;;4987704;28;20418;-63
2024/01/03 07:50:31;;;;;;;19.90;5.07;;;;;;;;;;4987934;28;20156;-63
2024/01/03 07:52:56;;;;;;;17.73;4.72;;;9.30;99.90;;;;;;4987003;28;20042;-64
2024/01/03 07:55:23;;;;;;;25.85;4.80;;;;;;;;;;4985992;28;20097;-64
2024/01/03 07:57:49;;;;;;;16.58;4.97;;;;;;;;;;4987192;28;20038;-64
2024/01/03 08:00:15;;;;;;;20.35;4.10;;;;;;;;;;4984217;28;20049;-64
2024/01/03 08:02:42;;;;;;;16.40;4.43;;;;;;;;;;4983451;28;20046;-64
2024/01/03 08:05:09;;;;;;;23.92;5.30;;;;;;;;;;4985316;28;20050;-64
2024/01/03 08:07:35;;;;;;;17.90;5.43;;;;;;;;;;4980752;28;20077;-65
2024/01/03 08:10:01;;;;;;;17.27;3.85;;;;;;;;;;4978378;28;20049;-64
2024/01/03 08:12:27;;;;;;;13.43;3.42;;;;;;;;;;4983124;28;20030;-65
2024/01/03 08:14:53;;;;;;;16.60;4.15;;;;;;;;;;4986820;28;20529;-64
2024/01/03 08:17:19;;;;;;;16.42;4.00;;;;;;;;;;4984392;28;20109;-64
2024/01/03 08:19:45;;;;;;;22.83;5.10;;;9.10;99.90;;;;;;4989421;28;20477;-64
2024/01/03 08:22:11;;;;;;;19.77;3.78;;;;;;;;;;4986738;28;20121;-64
2024/01/03 08:24:37;;;;;;;16.92;3.90;;;;;;;;;;4981583;28;20045;-64
2024/01/03 08:27:03;;;;;;;15.13;4.05;;;;;;;;;;4989758;28;20050;-64
2024/01/03 08:29:30;;;;;;;25.77;5.90;;;;;;;;;;4984402;28;20038;-64
2024/01/03 08:31:56;;;;;;;16.23;4.80;;;9.00;99.90;;;;;;4983986;28;20043;-64
2024/01/03 08:34:22;;;;;;;23.25;4.70;;;;;;;;;;4986370;28;20050;-64
2024/01/03 08:36:48;;;;;;;22.13;5.68;;;;;;;;;;4988271;28;20042;-64
2024/01/03 08:39:16;;;;;;;27.00;5.97;;;9.20;99.90;;;;;;4986443;28;20633;-64
2024/01/03 08:41:42;;;;;;;22.00;5.03;;;;;;;;;;4982056;28;20117;-64
2024/01/03 08:44:09;;;;;;;21.25;5.10;;;;;;;;;;4978892;28;20073;-64
2024/01/03 08:46:41;;;;;;;20.33;5.70;;;;;;;;;;4988667;28;20150;-64
2024/01/03 08:49:08;;;;;;;17.55;4.72;;;;;;;;;;4988990;28;20498;-64
2024/01/03 08:51:34;;;;;;;20.90;5.07;;;;;;;;;;4984728;28;20081;-64
2024/01/03 08:54:00;;;;;;;17.98;5.32;;;;;;;;;;4984242;28;20069;-64
2024/01/03 08:56:27;;;;;;;20.25;4.68;;;;;;;;;;4988753;28;20073;-64
2024/01/03 08:58:53;;;;;;;26.70;4.40;;;;;;;;;;4982330;28;20162;-64
2024/01/03 09:01:20;;;;;;;24.70;4.47;;;;;;;;;;4981158;28;20126;-64
2024/01/03 09:03:46;;;;;;;25.40;5.20;;;;;;;;;;4988707;28;20038;-64
2024/01/03 09:06:19;;;;;;;25.73;5.85;;;;;;;;;;4984499;28;20113;-64
2024/01/03 09:08:46;;;;;;;21.38;5.68;;;9.10;99.90;;;;;;4986565;28;20038;-64
2024/01/03 09:11:13;;;;;;;23.05;5.22;;;;;;;;;;4978221;28;20038;-64
2024/01/03 09:13:39;;;;;;;25.42;5.82;;;;;;;;;;4987899;28;20082;-64
2024/01/03 09:16:06;;;;;;;19.30;4.65;;;;;;;;;;4988625;28;20034;-64
2024/01/03 09:18:32;;;;;;;23.30;4.85;;;;;;;;;;4985472;28;20042;-64
2024/01/03 09:20:58;;;;;;;21.60;5.10;;;;;;;;;;4982027;28;20130;-64
2024/01/03 09:23:24;;;;;;;21.25;5.07;;;;;;;;;;4979363;28;20049;-62
2024/01/03 09:25:52;;;;;;;17.23;6.40;;;;;;;;;;4985385;28;20497;-62
2024/01/03 09:28:18;;;;;;;19.77;4.93;;;;;;;;;;4981688;28;20117;-63
2024/01/03 09:30:44;;;;;;;22.05;6.00;;;;;;;;;;4981070;28;20073;-55
2024/01/03 09:33:12;;;;;;;22.15;6.50;;;;;;;;;;4982206;28;20057;-53
2024/01/03 09:35:38;;;;;;;18.83;5.05;;;;;;;;;;4983160;28;20057;-55
2024/01/03 09:38:05;;;;;;;14.95;3.75;;;;;;;;;;4983050;28;20100;-57
2024/01/03 09:40:33;;;;;;;24.83;4.15;;;;;;;;;;4985516;28;20034;-55
2024/01/03 09:43:01;;;;;;;17.65;3.75;;;9.20;99.90;;;;;;4985561;28;20042;-52
2024/01/03 09:45:27;;;;;;;25.17;5.38;;;9.20;99.90;;;;;;4980802;28;20039;-51
2024/01/03 09:47:53;;;;;;;24.17;4.28;;;9.30;99.90;;;;;;4986424;28;20043;-50
2024/01/03 09:50:18;;;;;;;15.48;3.85;;;9.30;99.90;;;;;;4981561;28;20031;-53
2024/01/03 09:52:45;;;;;;;25.63;4.95;;;;;;;;;;4983472;28;20050;-52
2024/01/03 09:55:11;;;;;;;24.83;5.15;;;;;;;;;;4981549;28;20521;-51
2024/01/03 09:57:38;;;;;;;20.65;5.07;;;;;;;;;;4982228;28;20056;-54
2024/01/03 10:00:05;;;;;;;20.20;3.70;;;;;;;;;;4983987;28;20502;-55
2024/01/03 10:02:31;;;;;;;19.33;3.67;;;9.30;99.90;;;;;;4984197;28;20520;-52
2024/01/03 10:04:57;;;;;;;13.50;3.65;;;;;;;;;;4991508;28;20034;-55
2024/01/03 10:07:33;;;;;;;12.63;3.10;;;;;;;;;;4984893;28;20113;-53
2024/01/03 10:09:59;;;;;;;19.05;3.47;;;;;;;;;;4982385;28;20050;-52
2024/01/03 10:12:25;;;;;;;11.20;2.83;;;;;;;;;;4991133;28;20045;-54
2024/01/03 10:14:51;;;;;;;16.92;3.33;;;;;;;;;;4988814;28;20038;-54
2024/01/03 10:17:17;;;;;;;14.50;3.17;;;9.10;99.90;;;;;;4989152;28;20050;-54
2024/01/03 10:19:43;;;;;;;17.80;3.80;;;;;;;;;;4989164;28;20519;-55
2024/01/03 10:22:09;;;;;;;17.15;3.78;;;;;;;;;;4986131;28;20050;-55
2024/01/03 10:24:42;;;;;;;16.73;4.70;;;;;;;;;;4986085;28;20465;-51
2024/01/03 10:27:09;;;;;;;27.63;5.15;;;;;;;;;;4987352;28;20505;-56
2024/01/03 10:29:36;;;;;;;15.77;3.47;;;9.20;99.90;;;;;;4983629;28;20472;-55
2024/01/03 10:32:05;;;;;;;18.83;3.70;;;;;;;;;;4988207;28;20035;-52
2024/01/03 10:34:32;;;;;;;17.83;3.63;;;;;;;;;;4990726;28;20113;-54
2024/01/03 10:36:59;;;;;;;19.55;4.65;;;;;;;;;;4989378;28;20046;-53
2024/01/03 10:39:25;;;;;;;17.75;4.75;;;9.20;99.90;;;;;;4986524;28;20145;-55
2024/01/03 10:41:52;;;;;;;18.45;4.65;;;;;;;;;;4980480;28;20077;-53
2024/01/03 10:44:19;;;;;;;13.27;4.00;;;;;;;;;;4988247;28;20048;-53
2024/01/03 10:46:45;;;;;;;20.30;4.57;;;;;;;;;;4983703;28;20042;-54
2024/01/03 10:49:11;;;;;;;22.95;4.30;;;9.30;99.90;;;;;;4982942;28;20042;-55
2024/01/03 10:51:41;;;;;;;26.15;4.85;;;;;;;;;;4985704;28;20084;-52
2024/01/03 10:54:08;;;;;;;19.48;4.85;;;;;;;;;;4989033;28;20046;-56
2024/01/03 10:56:35;;;;;;;16.33;4.13;;;;;;;;;;4985760;28;20042;-52
2024/01/03 10:59:02;;;;;;;18.40;3.95;;;9.40;99.90;;;;;;4986984;28;20074;-52
2024/01/03 11:01:47;;;;;;;15.80;4.00;;;;;;;;;;4985806;28;21193;-52
2024/01/03 11:04:22;;;;;;;22.63;4.72;;;;;;;;;;4988162;28;20493;-53
2024/01/03 11:07:01;;;;;;;18.85;4.57;;;;;;;;;;4988060;28;20057;-53
2024/01/03 11:09:27;;;;;;;18.67;4.40;;;;;;;;;;4988254;28;20100;-52
2024/01/03 11:12:15;;;;;;;24.67;5.20;;;;;;;;;;4988698;28;20490;-54
2024/01/03 11:14:43;;;;;;;16.42;4.35;;;;;;;;;;4989747;28;20049;-54
2024/01/03 11:17:12;;;;;;;25.42;5.15;;;;;;;;;;4988851;28;20125;-54
2024/01/03 11:19:38;;;;;;;20.20;4.72;;;;;;;;;;4986935;28;20078;-52
2024/01/03 11:22:05;;;;;;;21.27;3.70;;;;;;;;;;4988820;28;20452;-53
2024/01/03 11:24:31;;;;;;;13.65;3.53;;;;;;;;;;4987176;28;20604;-55
2024/01/03 11:26:58;;;;;;;20.08;4.10;;;;;;;;;;4986776;28;20069;-55
2024/01/03 11:29:36;;;;;;;18.55;3.85;;;10.00;99.90;;;;;;4986104;28;20419;-52
2024/01/03 11:32:04;;;;;;;16.15;3.75;;;9.40;99.90;;;;;;4989700;28;20050;-55
2024/01/03 11:34:36;;;;;;;17.05;4.32;;;;;;;;;;4985050;28;21265;-54
2024/01/03 11:37:03;;;;;;;14.30;4.03;;;;;;;;;;4989572;28;20046;-54
2024/01/03 11:39:33;;;;;;;19.58;4.35;;;;;;;;;;4987882;28;20419;-54
2024/01/03 11:41:58;;;;;;;16.70;4.13;;;9.90;99.90;;;;;;4988674;28;20124;-51
2024/01/03 11:44:24;;;;;;;18.13;3.90;;;;;;;;;;4987359;28;20121;-53
2024/01/03 11:46:57;;;;;;;18.25;3.75;;;;;;;;;;4990188;28;20046;-53
2024/01/03 11:49:23;;;;;;;19.38;3.97;;;9.90;99.90;;;;;;4989135;28;20124;-53
2024/01/03 11:51:48;;;;;;;18.55;3.65;;;10.00;99.90;;;;;;4988988;28;20121;-50
2024/01/03 11:54:14;;;;;;;17.30;4.28;;;9.80;99.90;;;;;;4989147;28;20046;-52
2024/01/03 11:56:40;;;;;;;15.23;3.90;;;;;;;;;;4988788;28;20038;-54
2024/01/03 11:59:05;;;;;;;15.68;3.50;;;9.80;99.90;;;;;;4988816;28;20421;-54
2024/01/03 12:01:31;;;;;;;25.05;5.57;;;9.80;99.90;;;;;;4987082;28;20133;-54
2024/01/03 12:04:10;;;;;;;13.75;3.65;;;;;;;;;;4987714;28;20038;-53
2024/01/03 12:06:36;;;;;;;16.08;4.65;;;;;;;;;;4986961;28;20137;-51
2024/01/03 12:09:04;;;;;;;15.75;3.35;;;;;;;;;;4989444;28;20038;-52
2024/01/03 12:11:31;;;;;;;18.80;4.35;;;;;;;;;;4989818;28;20042;-52
2024/01/03 12:13:57;;;;;;;16.58;3.70;;;;;;;;;;4990736;28;20469;-55
2024/01/03 12:16:23;;;;;;;16.15;4.00;;;;;;;;;;4986728;28;20034;-50
2024/01/03 12:18:49;;;;;;;14.02;3.25;;;;;;;;;;4988811;28;20053;-51
2024/01/03 12:21:18;;;;;;;12.73;3.30;;;;;;;;;;4987608;28;20133;-54
2024/01/03 12:24:00;;;;;;;23.52;4.82;;;;;;;;;;4989750;28;20628;-51
2024/01/03 12:26:26;;;;;;;11.65;3.05;;;;;;;;;;4988632;28;20038;-54
2024/01/03 12:28:59;;;;;;;16.73;4.00;;;;;;;;;;4989917;28;20038;-54
2024/01/03 12:34:03;;;;;;;12.75;3.45;;;;;;;;;;5015339;28;20054;-56
2024/01/03 12:36:29;;;;;;;16.25;3.28;;;;;;;;;;5025620;28;20033;-55
2024/01/03 12:38:58;;;;;;;12.38;2.92;;;;;;;;;;5008511;28;20061;-56
2024/01/03 12:41:24;;;;;;;14.23;3.22;;;;;;;;;;5009357;28;20615;-54
2024/01/03 12:43:50;;;;;;;12.38;3.78;;;10.00;99.90;;;;;;5009179;28;20038;-57
2024/01/03 12:46:15;;;;;;;11.93;3.63;;;;;;;;;;5011193;28;20093;-55
2024/01/03 12:48:42;;;;;;;12.75;3.25;;;;;;;;;;5009663;28;20056;-56
2024/01/03 12:51:08;;;;;;;13.13;2.50;;;;;;;;;;5011539;28;20060;-55
2024/01/03 12:53:36;;;;;;;8.93;2.97;;;;;;;;;;5012002;28;20382;-57
2024/01/03 12:56:02;;;;;;;11.93;2.88;;;;;;;;;;5010173;28;20038;-55
2024/01/03 12:58:28;;;;;;;11.43;2.97;;;;;;;;;;5008043;28;20443;-54
2024/01/03 13:00:54;;;;;;;11.85;3.67;;;9.70;99.90;;;;;;5008975;28;20072;-55
2024/01/03 13:03:20;;;;;;;19.00;4.32;;;;;;;;;;5011266;28;20034;-54
2024/01/03 13:05:45;;;;;;;14.70;5.00;;;9.70;99.90;;;;;;5008770;28;20034;-56
2024/01/03 13:08:11;;;;;;;12.13;3.55;;;;;;;;;;5012425;28;20038;-56
2024/01/03 13:10:37;;;;;;;14.00;4.57;;;;;;;;;;5008825;28;20071;-53
2024/01/03 13:13:06;;;;;;;17.40;4.43;;;;;;;;;;5011242;28;20301;-56
2024/01/03 13:15:32;;;;;;;23.75;4.63;;;;;;;;;;5011371;28;20042;-57
2024/01/03 13:17:59;;;;;;;20.30;3.95;;;;;;;;;;5015404;28;20069;-57
2024/01/03 13:20:25;;;;;;;16.90;4.20;;;;;;;;;;5014859;28;20421;-57
2024/01/03 13:22:51;;;;;;;11.55;3.30;;;;;;;;;;5015206;28;20048;-57
2024/01/03 13:25:19;;;;;;;26.33;4.38;;;;;;;;;;5017650;28;20133;-58
2024/01/03 13:27:45;;;;;;;21.33;5.03;;;;;;;;;;5016026;28;20038;-58
2024/01/03 13:30:11;;;;;;;17.05;4.05;;;;;;;;;;5011973;28;20053;-57
2024/01/03 13:32:41;;;;;;;16.15;4.05;;;;;;;;;;5010136;28;20033;-56
2024/01/03 13:35:07;;;;;;;17.27;5.07;;;;;;;;;;5018077;28;20286;-58
2024/01/03 13:37:33;;;;;;;12.80;3.40;;;;;;;;;;5013728;28;20065;-57
2024/01/03 13:40:01;;;;;;;12.82;3.85;;;;;;;;;;5014298;28;20068;-57
2024/01/03 13:42:27;;;;;;;17.05;3.97;;;;;;;;;;5012404;28;20057;-55
2024/01/03 13:44:52;;;;;;;15.52;3.92;;;;;;;;;;5017425;28;20149;-57
2024/01/03 13:47:21;;;;;;;12.27;3.65;;;;;;;;;;5010902;28;20543;-56
2024/01/03 13:49:47;;;;;;;14.82;3.88;;;;;;;;;;5018276;28;20049;-56
2024/01/03 13:52:14;;;;;;;12.80;3.28;;;;;;;;;;5013671;28;20063;-58
2024/01/03 13:54:40;;;;;;;17.08;3.60;;;;;;;;;;5013207;28;20045;-58
2024/01/03 13:57:06;;;;;;;11.82;3.25;;;9.50;99.90;;;;;;5013007;28;20034;-56
2024/01/03 13:59:32;;;;;;;11.13;3.25;;;;;;;;;;5010844;28;20168;-57
2024/01/03 14:01:58;;;;;;;17.08;4.22;;;;;;;;;;5008526;28;20473;-58
2024/01/03 14:04:24;;;;;;;14.65;3.65;;;;;;;;;;5012277;28;20079;-58
2024/01/03 14:06:51;;;;;;;11.90;3.33;;;;;;;;;;5009308;28;20089;-54
2024/01/03 14:09:16;;;;;;;16.38;4.20;;;9.30;99.90;;;;;;5011466;28;20037;-58
2024/01/03 14:11:42;;;;;;;18.13;3.55;;;;;;;;;;5008275;28;20034;-57